Time;durP1;ratioP1;P1;durP2;ratioP2;P2;SDS_P1;SDS_P2;PMS_P1;PMS_P2;Temp;Humidity;BMP_temperature;BMP_pressure;BME280_temperature;BME280_humidity;BME280_pressure;Samples;Min_cycle;Max_cycle;Signal;HPM_P1;HPM_P2
2023/05/25 00:01:23;;;;;;;1.40;1.25;;;24.30;48.20;;;;;;5053421;28;20049;-62
2023/05/25 00:03:51;;;;;;;0.93;0.93;;;24.20;48.20;;;;;;5053130;28;20045;-61
2023/05/25 00:06:18;;;;;;;1.20;1.10;;;24.20;48.20;;;;;;5053123;28;20127;-61
2023/05/25 00:08:46;;;;;;;1.27;1.17;;;24.20;48.20;;;;;;5053236;28;20091;-61
2023/05/25 00:11:15;;;;;;;1.08;1.02;;;24.20;48.30;;;;;;5054673;28;20467;-62
2023/05/25 00:13:42;;;;;;;1.20;1.15;;;24.20;48.30;;;;;;5053285;28;20060;-62
2023/05/25 00:16:10;;;;;;;1.08;1.02;;;24.20;48.30;;;;;;5053627;28;20079;-61
2023/05/25 00:18:37;;;;;;;0.80;0.80;;;24.20;48.30;;;;;;5053423;28;20049;-61
2023/05/25 00:21:05;;;;;;;1.30;1.02;;;24.20;48.30;;;;;;5052955;28;20045;-62
2023/05/25 00:23:32;;;;;;;0.82;0.82;;;24.20;48.30;;;;;;5053456;28;20041;-61
2023/05/25 00:26:01;;;;;;;1.10;1.00;;;24.20;48.30;;;;;;5052236;28;20524;-62
2023/05/25 00:28:28;;;;;;;0.80;0.80;;;24.20;48.30;;;;;;5052964;28;20056;-62
2023/05/25 00:30:56;;;;;;;0.90;0.90;;;24.10;48.30;;;;;;5050863;28;20541;-61
2023/05/25 00:33:23;;;;;;;1.05;0.95;;;24.10;48.40;;;;;;5053313;28;20520;-62
2023/05/25 00:35:52;;;;;;;1.73;1.20;;;24.10;48.40;;;;;;5051268;28;20095;-61
2023/05/25 00:38:20;;;;;;;1.42;1.00;;;24.10;48.40;;;;;;5052861;28;20103;-62
2023/05/25 00:40:47;;;;;;;1.05;1.05;;;24.10;48.40;;;;;;5053326;28;20049;-62
2023/05/25 00:43:14;;;;;;;1.10;1.00;;;24.10;48.50;;;;;;5053047;28;20127;-61
2023/05/25 00:45:41;;;;;;;0.88;0.88;;;24.10;48.50;;;;;;5053282;28;20556;-62
2023/05/25 00:48:09;;;;;;;1.10;1.00;;;24.10;48.50;;;;;;5052567;28;20049;-62
2023/05/25 00:50:39;;;;;;;2.17;0.90;;;24.10;48.50;;;;;;5052820;28;20045;-61
2023/05/25 00:53:07;;;;;;;1.30;1.00;;;24.10;48.60;;;;;;5053302;28;20075;-62
2023/05/25 00:55:52;;;;;;;1.00;1.00;;;24.10;48.60;;;;;;5051981;28;20123;-62
2023/05/25 00:58:23;;;;;;;1.45;1.20;;;24.10;48.60;;;;;;5052997;28;20588;-62
2023/05/25 01:00:54;;;;;;;1.13;0.80;;;24.10;48.60;;;;;;5051726;28;20045;-63
2023/05/25 01:03:27;;;;;;;0.88;0.80;;;24.10;48.60;;;;;;5052790;28;20055;-65
2023/05/25 01:05:56;;;;;;;1.08;0.80;;;24.10;48.50;;;;;;5052411;28;20493;-65
2023/05/25 01:08:25;;;;;;;2.70;0.98;;;24.10;48.50;;;;;;5053581;28;20129;-62
2023/05/25 01:10:54;;;;;;;0.90;0.90;;;24.10;48.50;;;;;;5050909;28;20128;-64
2023/05/25 01:13:22;;;;;;;0.90;0.90;;;24.10;48.50;;;;;;5052045;28;20057;-62
2023/05/25 01:15:51;;;;;;;0.70;0.70;;;24.10;48.50;;;;;;5051497;28;20106;-62
2023/05/25 01:18:18;;;;;;;0.93;0.93;;;24.10;48.50;;;;;;5052293;28;20497;-65
2023/05/25 01:21:12;;;;;;;1.23;1.13;;;24.10;48.50;;;;;;5052823;28;20047;-64
2023/05/25 01:23:46;;;;;;;5.28;1.45;;;24.10;48.40;;;;;;5051258;28;20571;-66
2023/05/25 01:26:16;;;;;;;0.73;0.70;;;24.10;48.50;;;;;;5051591;28;20049;-65
2023/05/25 01:28:50;;;;;;;0.95;0.95;;;24.10;48.50;;;;;;5052618;28;20123;-62
2023/05/25 01:31:20;;;;;;;1.10;0.90;;;24.10;48.50;;;;;;5051809;28;20045;-69
2023/05/25 01:33:52;;;;;;;1.33;1.23;;;24.10;48.50;;;;;;5052597;28;20106;-64
2023/05/25 01:36:19;;;;;;;0.73;0.73;;;24.10;48.50;;;;;;5052531;28;20106;-64
2023/05/25 01:38:47;;;;;;;1.00;0.90;;;24.00;48.40;;;;;;5052757;28;20084;-63
2023/05/25 01:41:15;;;;;;;1.00;1.00;;;24.00;48.40;;;;;;5051993;28;20088;-67
2023/05/25 01:43:42;;;;;;;1.20;1.10;;;24.00;48.50;;;;;;5051960;28;20136;-66
2023/05/25 01:46:24;;;;;;;0.93;0.93;;;24.00;48.50;;;;;;5052289;28;20095;-63
2023/05/25 01:49:01;;;;;;;1.23;0.80;;;24.00;48.50;;;;;;5056943;28;20128;-66
2023/05/25 01:51:46;;;;;;;1.02;1.02;;;24.00;48.60;;;;;;5056852;28;20568;-66
2023/05/25 01:54:26;;;;;;;1.38;1.20;;;24.00;48.50;;;;;;5056015;28;20053;-64
2023/05/25 01:56:57;;;;;;;1.63;1.10;;;24.00;48.60;;;;;;5055434;28;20486;-67
2023/05/25 01:59:26;;;;;;;0.73;0.73;;;24.00;48.60;;;;;;5056495;28;20111;-62
2023/05/25 02:01:54;;;;;;;1.30;1.20;;;24.00;48.60;;;;;;5054579;28;20088;-61
2023/05/25 02:04:22;;;;;;;1.23;1.13;;;23.90;48.60;;;;;;5055573;28;20809;-61
2023/05/25 02:06:50;;;;;;;1.40;1.30;;;23.90;48.60;;;;;;5056390;28;20056;-61
2023/05/25 02:09:18;;;;;;;1.00;1.00;;;23.90;48.60;;;;;;5056017;28;20564;-61
2023/05/25 02:11:45;;;;;;;1.20;1.02;;;23.90;48.60;;;;;;5055917;28;20071;-61
2023/05/25 02:14:13;;;;;;;1.17;1.08;;;23.90;48.70;;;;;;5056743;28;20084;-61
2023/05/25 02:16:41;;;;;;;0.95;0.95;;;23.90;48.70;;;;;;5056123;28;20079;-62
2023/05/25 02:19:11;;;;;;;1.17;1.10;;;23.90;48.70;;;;;;5055287;28;20179;-61
2023/05/25 02:21:38;;;;;;;1.25;1.02;;;23.90;48.70;;;;;;5055301;28;20434;-61
2023/05/25 02:24:08;;;;;;;0.90;0.90;;;23.90;48.70;;;;;;5055772;28;20052;-61
2023/05/25 02:26:38;;;;;;;0.90;0.90;;;23.90;48.80;;;;;;5055113;28;20056;-61
2023/05/25 02:29:05;;;;;;;;;;;23.90;48.80;;;;;;5062174;28;20048;-61
2023/05/25 02:31:32;;;;;;;1.00;1.00;;;23.90;48.90;;;;;;5076535;28;20349;-61
2023/05/25 02:33:59;;;;;;;0.90;0.90;;;23.80;48.90;;;;;;5075123;28;20554;-61
2023/05/25 02:36:27;;;;;;;1.30;1.10;;;23.80;48.90;;;;;;5074981;28;20084;-61
2023/05/25 02:38:54;;;;;;;1.10;1.10;;;23.90;49.00;;;;;;5074681;28;20132;-61
2023/05/25 02:41:23;;;;;;;0.93;0.93;;;23.80;49.00;;;;;;5075031;28;20048;-61
2023/05/25 02:43:50;;;;;;;0.80;0.80;;;23.80;49.00;;;;;;5074181;28;20389;-61
2023/05/25 02:46:17;;;;;;;0.90;0.90;;;23.80;49.00;;;;;;5074726;28;20552;-61
2023/05/25 02:48:45;;;;;;;1.00;1.00;;;23.80;49.00;;;;;;5075722;28;20044;-62
2023/05/25 02:51:13;;;;;;;1.13;1.02;;;23.80;49.00;;;;;;5074525;28;20048;-61
2023/05/25 02:53:40;;;;;;;1.00;1.00;;;23.80;49.00;;;;;;5075490;28;20045;-61
2023/05/25 02:56:09;;;;;;;1.05;1.05;;;23.80;49.00;;;;;;5076242;28;20085;-62
2023/05/25 02:58:37;;;;;;;1.20;1.10;;;23.80;48.90;;;;;;5074127;28;20092;-61
2023/05/25 03:01:04;;;;;;;1.00;1.00;;;23.80;48.90;;;;;;5057455;28;20053;-61
2023/05/25 03:03:32;;;;;;;1.02;1.02;;;23.90;48.90;;;;;;5054448;28;20056;-61
2023/05/25 03:05:59;;;;;;;0.77;0.77;;;23.90;48.80;;;;;;5055717;28;20128;-61
2023/05/25 03:08:27;;;;;;;0.70;0.70;;;23.90;48.80;;;;;;5066784;28;20131;-61
2023/05/25 03:10:54;;;;;;;1.02;0.95;;;23.90;48.80;;;;;;5074375;28;20084;-61
2023/05/25 03:13:21;;;;;;;1.20;1.10;;;23.90;48.80;;;;;;5080862;28;20118;-61
2023/05/25 03:15:48;;;;;;;1.10;1.10;;;23.80;48.70;;;;;;5095181;28;20492;-62
2023/05/25 03:18:15;;;;;;;1.10;1.10;;;23.80;48.80;;;;;;5087277;28;20075;-61
2023/05/25 03:20:44;;;;;;;1.08;1.08;;;23.80;48.70;;;;;;5084834;28;20052;-61
2023/05/25 03:23:11;;;;;;;1.25;1.15;;;23.90;48.80;;;;;;5058929;28;20468;-61
2023/05/25 03:25:38;;;;;;;0.68;0.68;;;23.90;48.70;;;;;;5055225;28;20124;-61
2023/05/25 03:28:05;;;;;;;1.60;1.13;;;23.90;48.70;;;;;;5055443;28;20084;-61
2023/05/25 03:30:32;;;;;;;1.38;0.80;;;23.90;48.70;;;;;;5054972;28;20416;-61
2023/05/25 03:33:00;;;;;;;0.93;0.93;;;23.90;48.70;;;;;;5053923;28;20111;-62
2023/05/25 03:35:27;;;;;;;1.33;1.17;;;23.90;48.70;;;;;;5054106;28;20572;-61
2023/05/25 03:37:54;;;;;;;1.10;1.10;;;23.90;48.70;;;;;;5055304;28;20135;-62
2023/05/25 03:40:21;;;;;;;1.13;0.98;;;23.90;48.60;;;;;;5054841;28;20049;-61
2023/05/25 03:42:49;;;;;;;1.30;0.90;;;23.90;48.60;;;;;;5054398;28;20084;-61
2023/05/25 03:45:16;;;;;;;2.15;1.30;;;23.90;48.50;;;;;;5054163;28;20452;-61
2023/05/25 03:47:44;;;;;;;1.20;1.20;;;23.90;48.50;;;;;;5054640;28;20076;-61
2023/05/25 03:50:11;;;;;;;1.25;1.15;;;23.90;48.50;;;;;;5054917;28;20079;-61
2023/05/25 03:52:38;;;;;;;1.10;1.10;;;24.00;48.50;;;;;;5054218;28;20103;-61
2023/05/25 03:55:05;;;;;;;0.90;0.90;;;24.00;48.50;;;;;;5072807;28;20052;-61
2023/05/25 03:57:32;;;;;;;1.38;1.27;;;24.00;48.50;;;;;;5074548;28;20110;-61
2023/05/25 03:59:59;;;;;;;0.93;0.93;;;24.00;48.40;;;;;;5074582;28;20431;-62
2023/05/25 04:02:27;;;;;;;1.48;1.20;;;24.00;48.40;;;;;;5074411;28;20048;-61
2023/05/25 04:04:55;;;;;;;1.20;1.20;;;24.00;48.30;;;;;;5073873;28;20051;-61
2023/05/25 04:07:22;;;;;;;0.90;0.90;;;24.10;48.40;;;;;;5073787;28;20095;-61
2023/05/25 04:09:49;;;;;;;1.40;1.30;;;24.10;48.30;;;;;;5073759;28;20480;-61
2023/05/25 04:12:16;;;;;;;1.13;1.02;;;24.10;48.30;;;;;;5074549;28;20054;-61
2023/05/25 04:14:45;;;;;;;1.00;1.00;;;24.10;48.30;;;;;;5073966;28;20056;-61
2023/05/25 04:17:12;;;;;;;0.98;0.98;;;24.10;48.30;;;;;;5080944;28;20093;-61
2023/05/25 04:19:39;;;;;;;1.23;1.20;;;24.10;48.20;;;;;;5081412;28;20052;-61
2023/05/25 04:22:06;;;;;;;1.20;1.20;;;24.10;48.20;;;;;;5073133;28;20554;-61
2023/05/25 04:24:33;;;;;;;0.90;0.90;;;24.20;48.20;;;;;;5075969;28;20045;-61
2023/05/25 04:27:01;;;;;;;0.65;0.65;;;24.20;48.20;;;;;;5074802;28;20099;-61
2023/05/25 04:29:28;;;;;;;1.50;1.40;;;24.20;48.10;;;;;;5078544;28;20056;-61
2023/05/25 04:31:55;;;;;;;2.25;1.17;;;24.20;48.10;;;;;;5079411;28;20053;-61
2023/05/25 04:34:22;;;;;;;1.30;1.20;;;24.30;48.10;;;;;;5072964;28;20048;-61
2023/05/25 04:36:49;;;;;;;1.75;1.63;;;24.30;48.10;;;;;;5073268;28;20051;-61
2023/05/25 04:39:17;;;;;;;1.27;1.17;;;24.30;47.90;;;;;;5071436;28;20513;-61
2023/05/25 04:41:45;;;;;;;1.35;1.25;;;24.30;47.90;;;;;;5073311;28;20049;-61
2023/05/25 04:44:12;;;;;;;1.40;1.30;;;24.30;47.70;;;;;;5072365;28;20086;-62
2023/05/25 04:46:39;;;;;;;1.48;1.38;;;24.30;47.70;;;;;;5071077;28;20048;-61
2023/05/25 04:49:12;;;;;;;1.40;1.30;;;24.30;47.60;;;;;;5073234;28;20425;-62
2023/05/25 04:51:39;;;;;;;1.73;1.60;;;24.30;47.60;;;;;;5073629;28;20068;-61
2023/05/25 04:54:07;;;;;;;1.58;1.48;;;24.40;48.10;;;;;;5071767;28;20063;-62
2023/05/25 04:56:34;;;;;;;1.38;1.27;;;24.40;47.40;;;;;;5072908;28;20051;-61
2023/05/25 04:59:03;;;;;;;1.27;1.27;;;24.40;47.40;;;;;;5071941;28;20114;-61
2023/05/25 05:01:30;;;;;;;1.80;1.70;;;24.40;47.30;;;;;;5052801;28;20141;-62
2023/05/25 05:03:57;;;;;;;3.83;3.10;;;24.50;47.30;;;;;;5053420;28;20045;-62
2023/05/25 05:06:24;;;;;;;3.88;3.50;;;24.50;47.20;;;;;;5053685;28;20470;-62
2023/05/25 05:08:52;;;;;;;3.15;2.85;;;24.50;46.70;;;;;;5053294;28;20049;-62
2023/05/25 05:11:19;;;;;;;4.53;3.50;;;24.40;46.80;;;;;;5052613;28;20044;-62
2023/05/25 05:13:46;;;;;;;3.83;3.53;;;24.30;46.80;;;;;;5064563;28;20130;-62
2023/05/25 05:16:13;;;;;;;6.07;4.70;;;24.20;46.90;;;;;;5068744;28;20052;-63
2023/05/25 05:18:40;;;;;;;5.60;4.50;;;24.10;46.90;;;;;;5063639;28;20051;-64
2023/05/25 05:21:08;;;;;;;8.30;5.63;;;24.00;47.10;;;;;;5068324;28;20052;-65
2023/05/25 05:23:35;;;;;;;6.18;5.50;;;23.90;47.10;;;;;;5072082;28;20076;-66
2023/05/25 05:26:03;;;;;;;6.05;4.85;;;23.80;47.20;;;;;;5063746;28;20125;-63
2023/05/25 05:28:31;;;;;;;7.68;4.95;;;23.60;47.50;;;;;;5066993;28;20071;-63
2023/05/25 05:30:58;;;;;;;5.78;5.15;;;23.40;47.90;;;;;;5066864;28;20049;-67
2023/05/25 05:33:25;;;;;;;5.40;4.65;;;23.30;48.40;;;;;;5065016;28;20131;-61
2023/05/25 05:35:53;;;;;;;6.75;4.65;;;23.20;48.70;;;;;;5065929;28;20143;-61
2023/05/25 05:38:20;;;;;;;6.97;4.30;;;23.10;48.90;;;;;;5062154;28;20048;-60
2023/05/25 05:40:47;;;;;;;5.38;3.88;;;23.20;49.10;;;;;;5068503;28;20481;-61
2023/05/25 05:43:22;;;;;;;5.60;3.53;;;23.30;49.20;;;;;;5064927;28;20481;-62
2023/05/25 05:45:54;;;;;;;4.70;4.18;;;23.40;49.10;;;;;;5061371;28;20407;-61
2023/05/25 05:48:23;;;;;;;4.43;4.03;;;23.50;49.00;;;;;;5064940;28;20047;-60
2023/05/25 05:50:51;;;;;;;4.25;3.85;;;23.60;48.90;;;;;;5065168;28;20492;-60
2023/05/25 05:53:18;;;;;;;4.65;3.55;;;23.60;48.70;;;;;;5062918;28;20148;-61
2023/05/25 05:55:45;;;;;;;4.93;4.35;;;23.70;48.70;;;;;;5060876;28;20056;-60
2023/05/25 05:58:16;;;;;;;9.85;6.35;;;23.80;48.50;;;;;;5062231;28;20052;-61
2023/05/25 06:00:43;;;;;;;10.63;6.32;;;23.90;48.30;;;;;;5059902;28;20143;-61
2023/05/25 06:03:10;;;;;;;8.90;6.78;;;24.00;48.20;;;;;;5061860;28;20044;-61
2023/05/25 06:05:37;;;;;;;9.38;6.63;;;24.10;48.20;;;;;;5057609;28;20095;-61
2023/05/25 06:08:07;;;;;;;9.68;7.13;;;24.20;48.00;;;;;;5060643;28;20064;-61
2023/05/25 06:10:34;;;;;;;10.52;6.43;;;24.20;47.90;;;;;;5059133;28;20071;-61
2023/05/25 06:13:01;;;;;;;8.93;6.78;;;24.30;47.70;;;;;;5063202;28;20048;-61
2023/05/25 06:15:28;;;;;;;8.48;6.65;;;24.40;47.50;;;;;;5061906;28;20458;-61
2023/05/25 06:17:56;;;;;;;8.98;6.95;;;24.50;47.30;;;;;;5055774;28;20049;-61
2023/05/25 06:20:23;;;;;;;7.53;6.32;;;24.60;47.20;;;;;;5065600;28;20408;-60
2023/05/25 06:22:50;;;;;;;7.65;6.05;;;24.60;47.00;;;;;;5058090;28;20041;-61
2023/05/25 06:25:17;;;;;;;8.50;7.45;;;24.70;47.00;;;;;;5058750;28;20090;-62
2023/05/25 06:27:45;;;;;;;10.15;7.00;;;24.70;46.80;;;;;;5061883;28;20060;-61
2023/05/25 06:30:12;;;;;;;8.82;6.43;;;24.80;46.70;;;;;;5063933;28;20114;-62
2023/05/25 06:32:42;;;;;;;12.50;7.95;;;24.80;46.60;;;;;;5058921;28;20087;-61
2023/05/25 06:35:13;;;;;;;;;;;24.90;46.60;;;;;;5060561;28;20048;-61
2023/05/25 06:37:40;;;;;;;8.45;7.15;;;24.90;46.60;;;;;;5066933;28;19931;-61
2023/05/25 06:40:09;;;;;;;10.13;7.93;;;24.90;46.50;;;;;;5067707;28;20083;-61
2023/05/25 06:42:36;;;;;;;14.13;8.10;;;24.90;46.50;;;;;;5070850;28;20040;-60
2023/05/25 06:45:04;;;;;;;8.23;6.85;;;25.00;46.40;;;;;;5073780;28;20052;-58
2023/05/25 06:47:32;;;;;;;8.48;6.97;;;25.00;46.30;;;;;;5065093;28;20423;-60
2023/05/25 06:49:59;;;;;;;11.75;6.78;;;25.10;46.30;;;;;;5067342;28;20055;-59
2023/05/25 06:52:30;;;;;;;10.15;5.78;;;25.10;46.30;;;;;;5066208;28;20047;-59
2023/05/25 06:54:57;;;;;;;9.35;6.43;;;25.10;46.20;;;;;;5066655;28;20078;-59
2023/05/25 06:57:24;;;;;;;6.57;5.85;;;25.10;46.20;;;;;;5069856;28;20044;-60
2023/05/25 06:59:51;;;;;;;9.57;6.20;;;25.20;46.30;;;;;;5067208;28;20127;-64
2023/05/25 07:02:19;;;;;;;9.98;5.82;;;25.20;46.20;;;;;;5067339;28;20040;-65
2023/05/25 07:04:47;;;;;;;9.30;6.70;;;25.20;46.30;;;;;;5067758;28;20050;-61
2023/05/25 07:07:14;;;;;;;10.45;7.38;;;25.20;46.10;;;;;;5064406;28;20044;-61
2023/05/25 07:09:41;;;;;;;10.48;7.57;;;25.30;46.10;;;;;;5067836;28;20102;-61
2023/05/25 07:12:09;;;;;;;10.73;7.40;;;25.30;45.90;;;;;;5067507;28;20050;-60
2023/05/25 07:14:38;;;;;;;11.73;7.93;;;25.30;45.90;;;;;;5067669;28;20048;-60
2023/05/25 07:17:05;;;;;;;12.30;8.60;;;25.40;45.90;;;;;;5066260;28;20135;-61
2023/05/25 07:19:33;;;;;;;10.68;7.43;;;25.40;45.70;;;;;;5066409;28;20044;-61
2023/05/25 07:22:00;;;;;;;14.27;10.32;;;25.40;45.60;;;;;;5064376;28;20044;-61
2023/05/25 07:24:27;;;;;;;13.60;9.90;;;25.40;45.60;;;;;;5066970;28;20044;-61
2023/05/25 07:26:56;;;;;;;11.75;8.43;;;25.40;45.60;;;;;;5065959;28;20075;-60
2023/05/25 07:29:23;;;;;;;12.85;8.57;;;25.40;45.60;;;;;;5066260;28;20160;-60
2023/05/25 07:31:51;;;;;;;14.40;9.82;;;25.50;45.60;;;;;;5068738;28;20082;-60
2023/05/25 07:34:19;;;;;;;19.35;10.93;;;25.50;45.50;;;;;;5068390;28;20074;-62
2023/05/25 07:36:46;;;;;;;15.93;11.60;;;25.50;45.50;;;;;;5065086;28;20805;-61
2023/05/25 07:39:14;;;;;;;16.58;10.23;;;25.50;46.00;;;;;;5072268;28;20384;-61
2023/05/25 07:41:41;;;;;;;13.35;9.48;;;25.50;45.40;;;;;;5068356;28;20114;-61
2023/05/25 07:44:09;;;;;;;11.23;9.15;;;25.50;45.40;;;;;;5062437;28;20044;-60
2023/05/25 07:46:36;;;;;;;11.60;7.88;;;25.50;45.50;;;;;;5069787;28;20446;-62
2023/05/25 07:49:03;;;;;;;11.00;8.55;;;25.50;45.50;;;;;;5082248;28;20044;-61
2023/05/25 07:51:31;;;;;;;13.10;8.43;;;25.60;45.70;;;;;;5066663;28;20052;-61
2023/05/25 07:53:59;;;;;;;10.27;7.40;;;25.60;45.70;;;;;;5070087;28;20368;-61
2023/05/25 07:56:27;;;;;;;10.60;7.50;;;25.60;45.60;;;;;;5066560;28;20045;-61
2023/05/25 07:58:55;;;;;;;13.15;8.20;;;25.60;45.60;;;;;;5066551;28;20534;-61
2023/05/25 08:01:23;;;;;;;10.27;8.20;;;25.60;45.50;;;;;;5061806;28;20096;-61
2023/05/25 08:03:52;;;;;;;;;;;25.70;45.50;;;;;;5063941;28;20672;-61
2023/05/25 08:06:20;;;;;;;15.45;9.35;;;25.70;45.50;;;;;;5064002;28;19920;-60
2023/05/25 08:08:48;;;;;;;15.18;10.73;;;25.70;45.70;;;;;;5062926;28;20063;-61
2023/05/25 08:11:16;;;;;;;18.45;11.27;;;25.70;45.70;;;;;;5062827;28;20048;-61
2023/05/25 08:14:16;;;;;;;17.90;12.23;;;25.70;45.60;;;;;;5069903;28;20082;-62
2023/05/25 08:16:43;;;;;;;19.55;12.55;;;25.70;45.60;;;;;;5063864;28;20154;-62
2023/05/25 08:19:10;;;;;;;19.73;11.45;;;25.70;45.50;;;;;;5068143;28;20117;-61
2023/05/25 08:21:39;;;;;;;18.55;11.35;;;25.70;45.70;;;;;;5065257;28;20086;-62
2023/05/25 08:24:07;;;;;;;15.30;10.60;;;25.70;45.60;;;;;;5063435;28;20053;-61
2023/05/25 08:26:35;;;;;;;18.67;10.32;;;25.80;45.70;;;;;;5064145;28;20045;-63
2023/05/25 08:29:20;;;;;;;11.63;8.40;;;25.80;45.80;;;;;;5067274;28;20045;-62
2023/05/25 08:31:48;;;;;;;11.02;8.43;;;25.80;45.70;;;;;;5062008;28;20037;-63
2023/05/25 08:34:16;;;;;;;12.32;8.85;;;25.80;45.60;;;;;;5066339;28;20476;-62
2023/05/25 08:36:43;;;;;;;12.77;8.77;;;25.90;45.60;;;;;;5070080;28;20076;-62
2023/05/25 08:39:11;;;;;;;20.80;9.60;;;25.90;45.60;;;;;;5067665;28;20045;-65
2023/05/25 08:41:42;;;;;;;13.00;9.15;;;25.90;45.50;;;;;;5067759;28;20442;-61
2023/05/25 08:44:13;;;;;;;10.85;8.05;;;25.90;45.50;;;;;;5063818;28;20037;-62
2023/05/25 08:46:41;;;;;;;12.23;8.85;;;26.00;45.40;;;;;;5066731;28;20052;-63
2023/05/25 08:49:13;;;;;;;11.00;8.65;;;26.00;45.40;;;;;;5066370;28;20163;-61
2023/05/25 08:51:52;;;;;;;12.10;8.48;;;26.00;45.40;;;;;;5066619;28;20048;-61
2023/05/25 08:54:35;;;;;;;13.18;8.65;;;26.00;45.50;;;;;;5064014;28;20110;-62
2023/05/25 08:57:13;;;;;;;15.80;8.75;;;26.00;45.40;;;;;;5069941;28;20048;-62
2023/05/25 09:00:09;;;;;;;10.45;8.18;;;26.00;45.50;;;;;;5065933;28;20081;-62
2023/05/25 09:02:59;;;;;;;9.32;7.60;;;26.10;45.60;;;;;;5063481;28;20114;-60
2023/05/25 09:05:27;;;;;;;9.93;8.32;;;26.10;45.70;;;;;;5063249;28;20032;-62
2023/05/25 09:07:56;;;;;;;10.57;7.63;;;26.10;45.70;;;;;;5064302;28;20109;-63
2023/05/25 09:10:25;;;;;;;10.30;7.47;;;26.10;45.60;;;;;;5066136;28;20481;-64
2023/05/25 09:12:55;;;;;;;9.63;7.05;;;26.20;45.70;;;;;;5064513;28;20094;-65
2023/05/25 09:15:22;;;;;;;12.27;7.10;;;26.10;45.60;;;;;;5066043;28;20052;-64
2023/05/25 09:17:49;;;;;;;7.88;6.60;;;26.20;45.70;;;;;;5065785;28;20049;-65
2023/05/25 09:20:18;;;;;;;10.23;6.57;;;26.10;45.50;;;;;;5063438;28;20467;-65
2023/05/25 09:22:47;;;;;;;8.38;6.68;;;26.10;45.30;;;;;;5065012;28;20985;-66
2023/05/25 09:25:19;;;;;;;8.77;7.60;;;26.00;45.80;;;;;;5063740;28;20094;-66
2023/05/25 09:27:46;;;;;;;9.13;6.60;;;25.90;45.90;;;;;;5065484;28;20438;-63
2023/05/25 09:30:13;;;;;;;8.48;6.50;;;25.80;46.00;;;;;;5062634;28;20036;-64
2023/05/25 09:32:40;;;;;;;11.77;6.72;;;25.80;46.40;;;;;;5063664;28;20044;-64
2023/05/25 09:35:09;;;;;;;9.55;7.30;;;25.70;46.10;;;;;;5063131;28;20079;-63
2023/05/25 09:37:39;;;;;;;8.25;6.68;;;25.60;46.10;;;;;;5060036;28;20049;-68
2023/05/25 09:40:09;;;;;;;7.63;6.72;;;25.60;46.30;;;;;;5062760;28;20044;-64
2023/05/25 09:42:37;;;;;;;8.63;7.00;;;25.50;46.70;;;;;;5064396;28;20047;-63
2023/05/25 09:45:05;;;;;;;9.68;6.40;;;25.50;47.00;;;;;;5063949;28;20052;-64
2023/05/25 09:47:36;;;;;;;8.85;5.82;;;25.50;46.90;;;;;;5062349;28;20057;-64
2023/05/25 09:50:03;;;;;;;10.57;6.40;;;25.50;46.50;;;;;;5062625;28;20040;-64
2023/05/25 09:52:30;;;;;;;7.38;6.38;;;25.50;46.60;;;;;;5062452;28;20048;-64
2023/05/25 09:55:02;;;;;;;6.43;5.78;;;25.50;46.70;;;;;;5065348;28;20076;-65
2023/05/25 09:57:30;;;;;;;7.95;5.70;;;25.60;46.70;;;;;;5064030;28;20041;-61
2023/05/25 09:59:57;;;;;;;9.25;5.97;;;25.60;46.50;;;;;;5063797;28;20439;-62
2023/05/25 10:02:25;;;;;;;6.80;6.10;;;25.60;46.60;;;;;;5059223;28;20052;-60
2023/05/25 10:04:53;;;;;;;6.70;5.18;;;25.60;46.60;;;;;;5065828;28;20047;-61
2023/05/25 10:07:20;;;;;;;7.20;5.85;;;25.70;46.60;;;;;;5062022;28;20044;-61
2023/05/25 10:09:52;;;;;;;7.93;5.72;;;25.70;46.50;;;;;;5065793;28;20106;-61
2023/05/25 10:12:22;;;;;;;8.32;6.05;;;25.70;46.40;;;;;;5069916;28;20044;-60
2023/05/25 10:14:50;;;;;;;6.80;5.72;;;25.80;46.40;;;;;;5073254;28;20062;-60
2023/05/25 10:17:23;;;;;;;6.45;5.45;;;25.80;46.20;;;;;;5069944;28;20072;-61
2023/05/25 10:20:00;;;;;;;6.53;5.75;;;25.90;46.20;;;;;;5066335;28;20055;-62
2023/05/25 10:22:38;;;;;;;6.93;5.50;;;26.00;46.20;;;;;;5068682;28;20049;-62
2023/05/25 10:25:45;;;;;;;5.45;4.95;;;26.00;46.10;;;;;;5069693;28;20049;-62
2023/05/25 10:28:27;;;;;;;7.00;5.95;;;26.00;45.90;;;;;;5069923;28;20129;-62
2023/05/25 10:30:57;;;;;;;6.35;5.28;;;26.00;45.90;;;;;;5072115;28;20052;-63
2023/05/25 10:33:24;;;;;;;7.22;5.20;;;26.00;45.90;;;;;;5068816;28;20098;-61
2023/05/25 10:35:53;;;;;;;6.68;5.50;;;26.10;45.90;;;;;;5069961;28;20060;-61
2023/05/25 10:38:38;;;;;;;5.10;4.70;;;26.10;45.80;;;;;;5068800;28;20139;-62
2023/05/25 10:41:09;;;;;;;5.75;4.65;;;26.10;46.30;;;;;;5070094;28;20044;-61
2023/05/25 10:43:38;;;;;;;5.65;4.93;;;26.20;45.70;;;;;;5064372;28;20570;-61
2023/05/25 10:46:06;;;;;;;5.95;5.05;;;26.20;45.60;;;;;;5070878;28;20048;-61
2023/05/25 10:48:47;;;;;;;5.93;4.60;;;26.20;45.60;;;;;;5066835;28;20040;-61
2023/05/25 10:51:18;;;;;;;10.32;5.57;;;26.30;45.50;;;;;;5067274;28;20056;-61
2023/05/25 10:53:57;;;;;;;5.78;5.07;;;26.30;45.40;;;;;;5068193;28;20083;-61
2023/05/25 10:56:25;;;;;;;5.60;4.82;;;26.30;45.40;;;;;;5067973;28;20052;-60
2023/05/25 10:58:52;;;;;;;5.20;4.70;;;26.30;45.40;;;;;;5066458;28;20059;-60
2023/05/25 11:01:19;;;;;;;6.97;4.57;;;26.40;45.40;;;;;;5067063;28;20063;-60
2023/05/25 11:03:49;;;;;;;8.93;5.10;;;26.40;45.30;;;;;;5070594;28;20457;-62
2023/05/25 11:06:20;;;;;;;6.28;4.43;;;26.50;45.50;;;;;;5068137;28;20488;-61
2023/05/25 11:08:50;;;;;;;7.22;4.90;;;26.50;45.40;;;;;;5064364;28;20059;-62
2023/05/25 11:11:17;;;;;;;5.03;4.53;;;26.50;45.30;;;;;;5064146;28;20049;-61
2023/05/25 11:13:46;;;;;;;5.03;4.13;;;26.50;45.20;;;;;;5073173;28;20076;-61
2023/05/25 11:16:16;;;;;;;4.20;3.80;;;26.50;45.20;;;;;;5068974;28;20113;-60
2023/05/25 11:18:49;;;;;;;5.60;4.43;;;26.50;45.10;;;;;;5067937;28;20074;-60
2023/05/25 11:21:41;;;;;;;4.97;4.47;;;26.50;45.20;;;;;;5066127;28;20511;-61
2023/05/25 11:24:16;;;;;;;4.75;4.00;;;26.60;45.30;;;;;;5063092;28;20464;-61
2023/05/25 11:26:58;;;;;;;5.18;4.10;;;26.60;45.10;;;;;;5068730;28;20087;-61
2023/05/25 11:29:30;;;;;;;6.82;4.50;;;26.60;45.00;;;;;;5067718;28;20052;-60
2023/05/25 11:31:58;;;;;;;4.97;4.57;;;26.60;45.10;;;;;;5065800;28;20056;-60
2023/05/25 11:34:29;;;;;;;5.05;4.38;;;26.60;45.60;;;;;;5068250;28;20052;-59
2023/05/25 11:37:00;;;;;;;5.43;4.03;;;26.60;45.00;;;;;;5067353;28;20075;-61
2023/05/25 11:39:32;;;;;;;4.75;4.32;;;26.60;45.10;;;;;;5067349;28;20044;-61
2023/05/25 11:42:06;;;;;;;4.70;4.20;;;26.70;45.30;;;;;;5067372;28;21021;-62
2023/05/25 11:44:35;;;;;;;5.93;5.30;;;26.70;45.30;;;;;;5068632;28;20407;-62
2023/05/25 11:47:07;;;;;;;4.57;4.18;;;26.70;45.00;;;;;;5069715;28;20047;-61
2023/05/25 11:49:38;;;;;;;5.95;5.30;;;26.70;44.90;;;;;;5068942;28;20148;-60
2023/05/25 11:52:06;;;;;;;7.15;4.72;;;26.80;45.10;;;;;;5067391;28;20082;-59
2023/05/25 11:54:34;;;;;;;7.00;4.30;;;26.80;45.20;;;;;;5067915;28;20051;-62
2023/05/25 11:57:02;;;;;;;6.85;3.92;;;26.80;45.10;;;;;;5066351;28;20051;-62
2023/05/25 11:59:31;;;;;;;4.72;4.32;;;26.90;45.10;;;;;;5067896;28;20420;-62
2023/05/25 12:02:02;;;;;;;4.97;4.50;;;26.80;44.40;;;;;;5067317;28;20052;-65
2023/05/25 12:04:32;;;;;;;6.85;4.70;;;26.80;44.20;;;;;;5069234;28;20044;-64
2023/05/25 12:07:04;;;;;;;4.38;4.00;;;26.80;44.20;;;;;;5066602;28;20090;-67
2023/05/25 12:09:32;;;;;;;5.38;4.55;;;26.70;44.10;;;;;;5072102;28;20103;-65
2023/05/25 12:12:02;;;;;;;7.82;5.05;;;26.70;44.10;;;;;;5067496;28;20098;-65
2023/05/25 12:14:30;;;;;;;;;;;26.60;44.00;;;;;;5083265;28;20094;-65
2023/05/25 12:16:57;;;;;;;4.95;4.55;;;26.60;44.00;;;;;;5066764;28;19974;-63
2023/05/25 12:19:24;;;;;;;5.35;4.75;;;26.60;44.00;;;;;;5065394;28;20036;-64
2023/05/25 12:21:52;;;;;;;5.22;4.70;;;26.50;44.00;;;;;;5061359;28;20048;-62
2023/05/25 12:24:19;;;;;;;5.45;4.95;;;26.50;44.00;;;;;;5060605;28;20052;-62
2023/05/25 12:26:49;;;;;;;4.88;4.38;;;26.50;44.20;;;;;;5060464;28;20450;-65
2023/05/25 12:29:16;;;;;;;6.93;4.53;;;26.50;44.30;;;;;;5059189;28;20049;-62
2023/05/25 12:31:43;;;;;;;5.32;4.32;;;26.50;44.20;;;;;;5065510;28;20661;-63
2023/05/25 12:34:16;;;;;;;8.77;4.47;;;26.40;44.10;;;;;;5061531;28;20046;-61
2023/05/25 12:36:52;;;;;;;5.03;4.53;;;26.40;44.00;;;;;;5065276;28;20064;-62
2023/05/25 12:39:37;;;;;;;6.03;4.70;;;26.30;43.80;;;;;;5063520;28;20120;-63
2023/05/25 12:42:13;;;;;;;7.07;4.70;;;26.30;43.70;;;;;;5062945;28;20511;-63
2023/05/25 12:44:42;;;;;;;9.45;5.05;;;26.30;44.10;;;;;;5046936;28;20458;-62
2023/05/25 12:47:18;;;;;;;6.27;4.90;;;26.20;44.20;;;;;;5062216;28;20136;-62
2023/05/25 12:49:50;;;;;;;4.65;4.03;;;26.20;44.10;;;;;;5062300;28;20777;-63
2023/05/25 12:52:38;;;;;;;4.13;3.72;;;26.20;44.30;;;;;;5060990;28;21546;-63
2023/05/25 12:55:31;;;;;;;5.30;4.22;;;26.20;43.90;;;;;;5059402;28;20052;-68
2023/05/25 12:58:06;;;;;;;5.50;4.25;;;26.10;43.50;;;;;;5062340;28;20488;-69